Time,TemperatureF,DewpointF,PressureIn,WindDirection,WindDirectionDegrees,WindSpeedMPH,WindSpeedGustMPH,Humidity,HourlyPrecipIn,Conditions,Clouds,dailyrainin,SoftwareType,DateUTC
2013-06-29 00:05:00,70.9,70.0,29.41,South,182,0.0,2.0,97,0.00,,,0.00,weatherlink.com 1.10,2013-06-29 04:05:00,
2013-06-29 00:20:00,70.8,70.0,29.42,SSE,153,1.0,4.0,97,0.00,,,0.00,weatherlink.com 1.10,2013-06-29 04:20:00,
2013-06-29 00:35:00,70.6,70.0,29.41,SSE,147,3.0,5.0,97,0.00,,,0.00,weatherlink.com 1.10,2013-06-29 04:35:00,
2013-06-29 00:50:00,70.6,70.0,29.41,South,177,0.0,2.0,97,0.00,,,0.00,weatherlink.com 1.10,2013-06-29 04:50:00,
2013-06-29 01:05:00,70.5,70.0,29.40,SSW,211,0.0,4.0,97,0.00,,,0.00,weatherlink.com 1.10,2013-06-29 05:05:00,
2013-06-29 01:20:00,70.5,69.0,29.40,SE,146,3.0,4.0,96,0.00,,,0.00,weatherlink.com 1.10,2013-06-29 05:20:00,
2013-06-29 01:35:00,70.5,69.0,29.40,West,260,0.0,3.0,96,0.00,,,0.00,weatherlink.com 1.10,2013-06-29 05:35:00,
2013-06-29 01:50:00,70.4,69.0,29.40,South,169,5.0,5.0,96,0.00,,,0.00,weatherlink.com 1.10,2013-06-29 05:50:00,
2013-06-29 02:05:00,70.5,69.0,29.40,South,186,2.0,3.0,96,0.00,,,0.00,weatherlink.com 1.10,2013-06-29 06:05:00,
2013-06-29 02:20:00,70.6,70.0,29.39,SW,226,3.0,3.0,96,0.00,,,0.00,weatherlink.com 1.10,2013-06-29 06:20:00,
2013-06-29 02:35:00,70.5,69.0,29.39,SSW,206,0.0,1.0,96,0.00,,,0.00,weatherlink.com 1.10,2013-06-29 06:35:00,
2013-06-29 02:58:00,70.0,69.0,29.39,South,178,0.0,1.0,96,0.00,,,0.00,weatherlink.com 1.10,2013-06-29 06:58:00,
2013-06-29 03:05:00,69.8,69.0,29.39,SW,214,0.0,4.0,96,0.00,,,0.00,weatherlink.com 1.10,2013-06-29 07:05:00,
2013-06-29 03:20:00,69.7,69.0,29.39,South,175,0.0,1.0,96,0.00,,,0.00,weatherlink.com 1.10,2013-06-29 07:20:00,
2013-06-29 03:35:00,69.6,69.0,29.39,South,180,0.0,2.0,97,0.00,,,0.00,weatherlink.com 1.10,2013-06-29 07:35:00,
2013-06-29 03:50:00,69.6,69.0,29.39,WSW,242,0.0,2.0,97,0.00,,,0.00,weatherlink.com 1.10,2013-06-29 07:50:00,
2013-06-29 04:05:00,69.8,69.0,29.40,SW,220,0.0,1.0,97,0.00,,,0.00,weatherlink.com 1.10,2013-06-29 08:05:00,
2013-06-29 04:20:00,69.9,69.0,29.40,SW,220,0.0,0.0,97,0.00,,,0.00,weatherlink.com 1.10,2013-06-29 08:20:00,
2013-06-29 04:35:00,69.9,69.0,29.40,SW,220,0.0,0.0,97,0.00,,,0.00,weatherlink.com 1.10,2013-06-29 08:35:00,
2013-06-29 04:50:00,69.9,69.0,29.39,SW,220,0.0,0.0,97,0.00,,,0.00,weatherlink.com 1.10,2013-06-29 08:50:00,
2013-06-29 05:05:00,70.0,69.0,29.40,SW,220,0.0,1.0,98,0.00,,,0.00,weatherlink.com 1.10,2013-06-29 09:05:00,
2013-06-29 05:20:00,70.2,70.0,29.41,SSW,196,0.0,2.0,98,0.00,,,0.00,weatherlink.com 1.10,2013-06-29 09:20:00,
2013-06-29 05:35:00,70.3,70.0,29.41,South,189,1.0,2.0,98,0.00,,,0.00,weatherlink.com 1.10,2013-06-29 09:35:00,
2013-06-29 05:50:00,70.3,69.0,29.42,South,189,0.0,0.0,97,0.00,,,0.00,weatherlink.com 1.10,2013-06-29 09:50:00,
2013-06-29 06:05:00,70.3,70.0,29.42,South,189,0.0,0.0,98,0.00,,,0.00,weatherlink.com 1.10,2013-06-29 10:05:00,
2013-06-29 06:20:00,70.5,70.0,29.42,South,189,0.0,1.0,98,0.00,,,0.00,weatherlink.com 1.10,2013-06-29 10:20:00,
2013-06-29 06:35:00,70.7,70.0,29.42,South,189,0.0,1.0,98,0.00,,,0.00,weatherlink.com 1.10,2013-06-29 10:35:00,
2013-06-29 06:50:00,71.0,70.0,29.43,South,171,2.0,2.0,98,0.00,,,0.00,weatherlink.com 1.10,2013-06-29 10:50:00,
2013-06-29 07:06:00,71.7,71.0,29.43,SE,140,1.0,5.0,98,0.00,,,0.00,weatherlink.com 1.10,2013-06-29 11:06:00,
2013-06-29 07:21:00,72.5,71.0,29.43,SSE,161,0.0,5.0,96,0.00,,,0.00,weatherlink.com 1.10,2013-06-29 11:21:00,
2013-06-29 07:36:00,73.1,71.0,29.43,SSE,148,1.0,5.0,94,0.00,,,0.00,weatherlink.com 1.10,2013-06-29 11:36:00,
2013-06-29 07:51:00,73.7,71.0,29.43,SW,217,1.0,4.0,92,0.00,,,0.00,weatherlink.com 1.10,2013-06-29 11:51:00,
2013-06-29 08:06:00,74.0,71.0,29.43,South,182,0.0,6.0,90,0.01,,,0.01,weatherlink.com 1.10,2013-06-29 12:06:00,
2013-06-29 08:21:00,74.3,71.0,29.44,WNW,302,2.0,4.0,90,0.01,,,0.01,weatherlink.com 1.10,2013-06-29 12:21:00,
2013-06-29 08:36:00,74.7,71.0,29.45,WSW,246,1.0,4.0,88,0.01,,,0.01,weatherlink.com 1.10,2013-06-29 12:36:00,
2013-06-29 08:51:00,75.6,71.0,29.44,SSW,198,5.0,6.0,85,0.01,,,0.01,weatherlink.com 1.10,2013-06-29 12:51:00,
2013-06-29 09:06:00,77.0,72.0,29.45,South,184,2.0,6.0,84,0.00,,,0.01,weatherlink.com 1.10,2013-06-29 13:06:00,
2013-06-29 09:21:00,78.4,72.0,29.44,West,266,2.0,7.0,81,0.00,,,0.01,weatherlink.com 1.10,2013-06-29 13:21:00,
2013-06-29 09:36:00,78.6,72.0,29.45,SW,227,3.0,8.0,80,0.00,,,0.01,weatherlink.com 1.10,2013-06-29 13:36:00,
2013-06-29 09:51:00,78.2,71.0,29.44,SE,130,1.0,4.0,79,0.00,,,0.01,weatherlink.com 1.10,2013-06-29 13:51:00,
2013-06-29 10:06:00,77.8,72.0,29.45,SSE,161,0.0,4.0,81,0.00,,,0.01,weatherlink.com 1.10,2013-06-29 14:06:00,
2013-06-29 10:21:00,77.3,72.0,29.45,South,188,2.0,4.0,83,0.00,,,0.01,weatherlink.com 1.10,2013-06-29 14:21:00,
2013-06-29 10:36:00,76.9,71.0,29.45,ESE,115,1.0,7.0,82,0.00,,,0.01,weatherlink.com 1.10,2013-06-29 14:36:00,
2013-06-29 10:51:00,76.7,72.0,29.45,South,185,0.0,7.0,85,0.00,,,0.01,weatherlink.com 1.10,2013-06-29 14:51:00,
2013-06-29 11:06:00,76.7,72.0,29.45,WNW,301,3.0,6.0,85,0.00,,,0.01,weatherlink.com 1.10,2013-06-29 15:06:00,
2013-06-29 11:21:00,76.9,72.0,29.45,SSW,195,0.0,4.0,84,0.00,,,0.01,weatherlink.com 1.10,2013-06-29 15:21:00,
2013-06-29 11:36:00,78.4,72.0,29.45,WNW,285,0.0,6.0,81,0.00,,,0.01,weatherlink.com 1.10,2013-06-29 15:36:00,
2013-06-29 11:51:00,78.3,72.0,29.45,SSW,207,0.0,5.0,80,0.00,,,0.01,weatherlink.com 1.10,2013-06-29 15:51:00,
2013-06-29 12:06:00,79.7,72.0,29.46,SW,224,2.0,6.0,78,0.00,,,0.01,weatherlink.com 1.10,2013-06-29 16:06:00,
2013-06-29 12:21:00,80.8,73.0,29.45,ESE,115,9.0,9.0,76,0.00,,,0.01,weatherlink.com 1.10,2013-06-29 16:21:00,
2013-06-29 12:36:00,80.9,72.0,29.45,WSW,242,2.0,10.0,73,0.00,,,0.01,weatherlink.com 1.10,2013-06-29 16:36:00,
2013-06-29 12:51:00,82.1,72.0,29.45,SW,216,5.0,10.0,71,0.00,,,0.01,weatherlink.com 1.10,2013-06-29 16:51:00,
2013-06-29 13:06:00,82.2,72.0,29.45,West,268,5.0,8.0,71,0.00,,,0.01,weatherlink.com 1.10,2013-06-29 17:06:00,
2013-06-29 13:21:00,82.8,72.0,29.45,SSW,197,4.0,9.0,69,0.00,,,0.01,weatherlink.com 1.10,2013-06-29 17:21:00,
2013-06-29 13:36:00,83.0,72.0,29.45,East,98,3.0,12.0,70,0.00,,,0.01,weatherlink.com 1.10,2013-06-29 17:36:00,
2013-06-29 13:52:00,84.7,72.0,29.45,SW,227,3.0,12.0,65,0.00,,,0.01,weatherlink.com 1.10,2013-06-29 17:52:00,
2013-06-29 14:07:00,85.9,71.0,29.45,SE,136,4.0,10.0,62,0.00,,,0.01,weatherlink.com 1.10,2013-06-29 18:07:00,
2013-06-29 14:22:00,86.8,71.0,29.44,SSE,157,1.0,8.0,60,0.00,,,0.01,weatherlink.com 1.10,2013-06-29 18:22:00,
2013-06-29 14:37:00,87.9,71.0,29.44,SSE,154,3.0,8.0,58,0.00,,,0.01,weatherlink.com 1.10,2013-06-29 18:37:00,
2013-06-29 14:52:00,88.0,71.0,29.44,SSE,168,10.0,16.0,58,0.00,,,0.01,weatherlink.com 1.10,2013-06-29 18:52:00,
2013-06-29 15:07:00,87.4,70.0,29.44,WSW,237,3.0,14.0,56,0.00,,,0.01,weatherlink.com 1.10,2013-06-29 19:07:00,
2013-06-29 15:22:00,87.6,69.0,29.45,SE,133,8.0,12.0,55,0.00,,,0.01,weatherlink.com 1.10,2013-06-29 19:22:00,
2013-06-29 15:37:00,87.2,69.0,29.44,West,269,5.0,11.0,55,0.00,,,0.01,weatherlink.com 1.10,2013-06-29 19:37:00,
2013-06-29 15:52:00,87.4,69.0,29.44,West,269,4.0,9.0,54,0.00,,,0.01,weatherlink.com 1.10,2013-06-29 19:52:00,
2013-06-29 16:07:00,87.1,67.0,29.45,SW,220,1.0,12.0,52,0.00,,,0.01,weatherlink.com 1.10,2013-06-29 20:07:00,
2013-06-29 16:22:00,86.6,67.0,29.45,SE,141,4.0,10.0,53,0.00,,,0.01,weatherlink.com 1.10,2013-06-29 20:22:00,
2013-06-29 16:37:00,85.5,68.0,29.45,SSE,156,5.0,8.0,56,0.00,,,0.01,weatherlink.com 1.10,2013-06-29 20:37:00,
2013-06-29 16:52:00,84.8,67.0,29.46,South,173,5.0,10.0,55,0.00,,,0.01,weatherlink.com 1.10,2013-06-29 20:52:00,
2013-06-29 17:07:00,85.0,69.0,29.46,SSW,197,4.0,9.0,58,0.00,,,0.01,weatherlink.com 1.10,2013-06-29 21:07:00,
2013-06-29 17:22:00,84.7,69.0,29.46,WSW,257,3.0,12.0,59,0.00,,,0.01,weatherlink.com 1.10,2013-06-29 21:22:00,
2013-06-29 17:37:00,84.2,68.0,29.46,SSW,200,2.0,14.0,59,0.00,,,0.01,weatherlink.com 1.10,2013-06-29 21:37:00,
2013-06-29 17:52:00,83.5,68.0,29.46,SSW,198,7.0,13.0,60,0.00,,,0.01,weatherlink.com 1.10,2013-06-29 21:52:00,
2013-06-29 18:07:00,83.2,68.0,29.47,SE,140,7.0,14.0,60,0.01,,,0.02,weatherlink.com 1.10,2013-06-29 22:07:00,
2013-06-29 18:22:00,82.8,68.0,29.47,SE,134,2.0,14.0,62,0.01,,,0.02,weatherlink.com 1.10,2013-06-29 22:22:00,
2013-06-29 18:37:00,82.3,69.0,29.47,SSE,166,3.0,13.0,65,0.01,,,0.02,weatherlink.com 1.10,2013-06-29 22:37:00,
2013-06-29 18:52:00,81.7,69.0,29.48,SSE,163,6.0,9.0,66,0.00,,,0.02,weatherlink.com 1.10,2013-06-29 22:52:00,
2013-06-29 19:07:00,81.0,69.0,29.48,SW,234,2.0,11.0,68,0.00,,,0.02,weatherlink.com 1.10,2013-06-29 23:07:00,
2013-06-29 19:22:00,80.2,69.0,29.49,SSE,161,2.0,7.0,69,0.00,,,0.02,weatherlink.com 1.10,2013-06-29 23:22:00,
2013-06-29 19:37:00,79.4,69.0,29.50,South,180,2.0,8.0,70,0.00,,,0.02,weatherlink.com 1.10,2013-06-29 23:37:00,
2013-06-29 19:52:00,78.8,69.0,29.50,SSE,150,0.0,7.0,72,0.00,,,0.02,weatherlink.com 1.10,2013-06-29 23:52:00,
2013-06-29 20:07:00,78.3,69.0,29.51,SSW,213,0.0,7.0,73,0.00,,,0.02,weatherlink.com 1.10,2013-06-30 00:07:00,
2013-06-29 20:22:00,77.7,69.0,29.51,SSE,167,1.0,5.0,74,0.00,,,0.02,weatherlink.com 1.10,2013-06-30 00:22:00,
2013-06-29 20:37:00,77.2,69.0,29.51,SSE,159,1.0,5.0,75,0.00,,,0.02,weatherlink.com 1.10,2013-06-30 00:37:00,
2013-06-29 20:52:00,76.5,69.0,29.52,South,186,0.0,3.0,77,0.00,,,0.02,weatherlink.com 1.10,2013-06-30 00:52:00,
2013-06-29 21:07:00,75.8,69.0,29.53,SW,232,0.0,3.0,79,0.00,,,0.02,weatherlink.com 1.10,2013-06-30 01:07:00,
2013-06-29 21:22:00,75.2,68.0,29.54,SSW,193,1.0,4.0,79,0.00,,,0.02,weatherlink.com 1.10,2013-06-30 01:22:00,
2013-06-29 21:37:00,74.8,68.0,29.54,SSW,198,0.0,3.0,80,0.00,,,0.02,weatherlink.com 1.10,2013-06-30 01:37:00,
2013-06-29 21:52:00,74.3,68.0,29.55,South,178,1.0,4.0,81,0.00,,,0.02,weatherlink.com 1.10,2013-06-30 01:52:00,
2013-06-29 22:07:00,74.0,68.0,29.56,South,185,1.0,5.0,82,0.00,,,0.02,weatherlink.com 1.10,2013-06-30 02:07:00,
2013-06-29 22:22:00,73.9,69.0,29.56,ESE,115,1.0,3.0,83,0.00,,,0.02,weatherlink.com 1.10,2013-06-30 02:22:00,
2013-06-29 22:37:00,73.4,68.0,29.57,SE,142,1.0,5.0,84,0.00,,,0.02,weatherlink.com 1.10,2013-06-30 02:37:00,
2013-06-29 22:52:00,72.9,68.0,29.57,SSW,197,2.0,6.0,85,0.00,,,0.02,weatherlink.com 1.10,2013-06-30 02:52:00,
2013-06-29 23:07:00,72.6,69.0,29.57,South,190,0.0,3.0,87,0.00,,,0.02,weatherlink.com 1.10,2013-06-30 03:07:00,
2013-06-29 23:22:00,72.3,68.0,29.57,SE,130,0.0,2.0,87,0.00,,,0.02,weatherlink.com 1.10,2013-06-30 03:22:00,
2013-06-29 23:38:00,72.1,68.0,29.58,South,178,0.0,4.0,88,0.00,,,0.02,weatherlink.com 1.10,2013-06-30 03:38:00,
2013-06-29 23:53:00,71.7,68.0,29.58,SSW,213,2.0,5.0,89,0.00,,,0.02,weatherlink.com 1.10,2013-06-30 03:53:00,